createdAt,value
2018-12-22T00:00:41.966Z,10.50
2018-12-22T00:03:09.538Z,10.50
2018-12-22T00:05:37.107Z,10.60
2018-12-22T00:08:04.675Z,10.60
2018-12-22T00:13:06.161Z,10.60
2018-12-22T00:15:33.718Z,10.60
2018-12-22T00:18:01.281Z,10.60
2018-12-22T00:20:28.867Z,10.70
2018-12-22T00:22:56.426Z,10.70
2018-12-22T00:25:24.943Z,10.70
2018-12-22T00:27:52.674Z,10.80
2018-12-22T00:30:20.201Z,10.80
2018-12-22T00:32:47.842Z,10.80
2018-12-22T00:35:15.476Z,10.80
2018-12-22T00:37:43.059Z,10.80
2018-12-22T00:40:10.622Z,10.70
2018-12-22T00:42:38.169Z,10.70
2018-12-22T00:45:06.450Z,10.70
2018-12-22T00:47:34.004Z,10.70
2018-12-22T00:50:01.576Z,10.70
2018-12-22T00:52:29.152Z,10.70
2018-12-22T00:54:56.682Z,10.70
2018-12-22T00:57:24.243Z,10.70
2018-12-22T00:59:51.829Z,10.70
2018-12-22T01:02:19.382Z,10.60
2018-12-22T01:04:46.958Z,10.60
2018-12-22T01:07:14.532Z,10.60
2018-12-22T01:09:42.122Z,10.60
2018-12-22T01:12:09.746Z,10.60
2018-12-22T01:14:37.324Z,10.60
2018-12-22T01:17:04.886Z,10.60
2018-12-22T01:19:32.473Z,10.60
2018-12-22T01:22:00.022Z,10.60
2018-12-22T01:24:27.580Z,10.50
2018-12-22T01:26:55.135Z,10.50
2018-12-22T01:29:22.731Z,10.50
2018-12-22T01:31:50.313Z,10.50
2018-12-22T01:34:17.872Z,10.50
2018-12-22T01:36:45.533Z,10.50
2018-12-22T01:39:13.174Z,10.50
2018-12-22T01:41:40.706Z,10.50
2018-12-22T01:44:08.264Z,10.50
2018-12-22T01:46:35.809Z,10.50
2018-12-22T01:49:03.363Z,10.50
2018-12-22T01:51:30.912Z,10.60
2018-12-22T01:53:58.464Z,10.60
2018-12-22T01:56:26.023Z,10.60
2018-12-22T01:58:53.561Z,10.60
2018-12-22T02:01:21.120Z,10.60
2018-12-22T02:03:48.665Z,10.60
2018-12-22T02:06:16.259Z,10.50
2018-12-22T02:08:43.849Z,10.50
2018-12-22T02:11:11.438Z,10.60
2018-12-22T02:13:39.002Z,10.60
2018-12-22T02:16:06.560Z,10.60
2018-12-22T02:18:34.099Z,10.60
2018-12-22T02:21:01.638Z,10.60
2018-12-22T02:23:29.221Z,10.60
2018-12-22T02:25:56.980Z,10.50
2018-12-22T02:28:25.442Z,10.50
2018-12-22T02:30:53.002Z,10.50
2018-12-22T02:33:20.564Z,10.50
2018-12-22T02:35:49.049Z,10.50
2018-12-22T02:38:16.597Z,10.50
2018-12-22T02:40:44.171Z,10.50
2018-12-22T02:43:11.750Z,10.50
2018-12-22T02:45:39.310Z,10.50
2018-12-22T02:48:06.837Z,10.50
2018-12-22T02:50:34.385Z,10.60
2018-12-22T02:53:01.925Z,10.60
2018-12-22T02:55:29.505Z,10.60
2018-12-22T02:57:57.047Z,10.60
2018-12-22T03:00:24.635Z,10.60
2018-12-22T03:02:52.199Z,10.60
2018-12-22T03:05:19.771Z,10.60
2018-12-22T03:07:47.304Z,10.60
2018-12-22T03:10:14.885Z,10.50
2018-12-22T03:12:42.443Z,10.40
2018-12-22T03:15:10.004Z,10.30
2018-12-22T03:17:37.587Z,10.20
2018-12-22T03:20:05.179Z,10.20
2018-12-22T03:22:32.751Z,10.20
2018-12-22T03:25:00.363Z,10.30
2018-12-22T03:27:28.039Z,10.30
2018-12-22T03:29:55.607Z,10.30
2018-12-22T03:32:23.162Z,10.30
2018-12-22T03:34:50.758Z,10.30
2018-12-22T03:37:18.313Z,10.30
2018-12-22T03:39:45.918Z,10.30
2018-12-22T03:42:13.495Z,10.30
2018-12-22T03:44:42.164Z,10.20
2018-12-22T03:47:09.751Z,10.10
2018-12-22T03:49:37.374Z,10.00
2018-12-22T03:52:04.991Z,10.10
2018-12-22T03:54:32.543Z,10.10
2018-12-22T03:57:00.115Z,10.10
2018-12-22T03:59:27.740Z,10.00
2018-12-22T04:01:55.310Z,9.90
2018-12-22T04:04:22.855Z,9.90
2018-12-22T04:06:50.430Z,9.80
2018-12-22T04:09:18.041Z,9.80
2018-12-22T04:11:45.639Z,9.80
2018-12-22T04:14:13.209Z,9.80
2018-12-22T04:16:40.777Z,9.80
2018-12-22T04:19:08.341Z,9.70
2018-12-22T04:21:35.906Z,9.90
2018-12-22T04:24:03.505Z,10.00
2018-12-22T04:26:31.073Z,10.00
2018-12-22T04:28:58.686Z,10.10
2018-12-22T04:31:26.230Z,10.10
2018-12-22T04:33:53.882Z,10.20
2018-12-22T04:36:21.479Z,10.20
2018-12-22T04:38:49.014Z,10.20
2018-12-22T04:41:16.591Z,10.20
2018-12-22T04:43:44.171Z,10.30
2018-12-22T04:46:11.725Z,10.30
2018-12-22T04:48:39.304Z,10.30
2018-12-22T04:51:06.955Z,10.30
2018-12-22T04:53:34.566Z,10.30
2018-12-22T04:56:02.132Z,10.30
2018-12-22T04:58:29.792Z,10.30
2018-12-22T05:00:58.341Z,10.30
2018-12-22T05:03:26.260Z,10.40
2018-12-22T05:05:53.805Z,10.40
2018-12-22T05:08:21.368Z,10.40
2018-12-22T05:10:48.951Z,10.40
2018-12-22T05:13:16.560Z,10.30
2018-12-22T05:15:44.139Z,10.40
2018-12-22T05:18:11.726Z,10.20
2018-12-22T05:20:39.294Z,10.30
2018-12-22T05:23:06.845Z,10.30
2018-12-22T05:25:34.477Z,10.20
2018-12-22T05:28:02.832Z,10.10
2018-12-22T05:30:30.415Z,10.10
2018-12-22T05:32:57.946Z,10.00
2018-12-22T05:35:25.519Z,10.10
2018-12-22T05:37:53.114Z,10.10
2018-12-22T05:40:20.662Z,10.10
2018-12-22T05:42:48.244Z,10.20
2018-12-22T05:45:15.822Z,10.30
2018-12-22T05:47:43.357Z,10.20
2018-12-22T05:50:10.940Z,10.10
2018-12-22T05:52:38.476Z,10.10
2018-12-22T05:55:07.059Z,10.10
2018-12-22T05:57:34.596Z,10.20
2018-12-22T06:00:02.242Z,10.10
2018-12-22T06:02:29.846Z,10.00
2018-12-22T06:04:57.413Z,10.10
2018-12-22T06:07:25.008Z,10.10
2018-12-22T06:09:52.550Z,10.10
2018-12-22T06:12:20.149Z,10.10
2018-12-22T06:14:47.731Z,10.10
2018-12-22T06:17:15.339Z,10.10
2018-12-22T06:19:42.924Z,10.10
2018-12-22T06:22:10.510Z,10.10
2018-12-22T06:24:38.091Z,10.00
2018-12-22T06:27:05.671Z,10.00
2018-12-22T06:29:33.248Z,9.90
2018-12-22T06:32:00.831Z,9.80
2018-12-22T06:34:28.385Z,9.80
2018-12-22T06:36:55.975Z,9.90
2018-12-22T06:39:23.601Z,9.90
2018-12-22T06:41:51.279Z,9.80
2018-12-22T06:44:18.830Z,9.70
2018-12-22T06:46:46.421Z,9.70
2018-12-22T06:49:13.989Z,9.60
2018-12-22T06:51:41.537Z,9.50
2018-12-22T06:54:10.030Z,9.50
2018-12-22T06:56:37.618Z,9.40
2018-12-22T06:59:05.226Z,9.40
2018-12-22T07:01:32.784Z,9.40
2018-12-22T07:04:00.347Z,9.40
2018-12-22T07:06:27.926Z,9.40
2018-12-22T07:08:55.520Z,9.40
2018-12-22T07:11:23.150Z,9.40
2018-12-22T07:13:50.789Z,9.40
2018-12-22T07:16:18.354Z,9.40
2018-12-22T07:18:45.938Z,9.50
2018-12-22T07:21:13.536Z,9.60
2018-12-22T07:23:41.133Z,9.70
2018-12-22T07:26:08.737Z,9.80
2018-12-22T07:28:36.362Z,9.90
2018-12-22T07:31:03.942Z,10.00
2018-12-22T07:33:31.532Z,10.10
2018-12-22T07:35:59.142Z,10.10
2018-12-22T07:38:26.732Z,10.10
2018-12-22T07:40:54.278Z,10.10
2018-12-22T07:43:21.837Z,10.20
2018-12-22T07:45:49.373Z,10.20
2018-12-22T07:48:16.993Z,10.20
2018-12-22T07:50:44.545Z,10.20
2018-12-22T07:53:12.114Z,10.30
2018-12-22T07:55:39.678Z,10.20
2018-12-22T07:58:07.236Z,10.30
2018-12-22T08:00:35.307Z,10.30
2018-12-22T08:03:03.056Z,10.30
2018-12-22T08:05:38.438Z,10.30
2018-12-22T08:08:00.218Z,10.40
2018-12-22T08:10:27.791Z,10.40
2018-12-22T08:12:55.381Z,10.40
2018-12-22T08:15:22.960Z,10.40
2018-12-22T08:17:51.358Z,10.50
2018-12-22T08:20:18.942Z,10.50
2018-12-22T08:22:46.521Z,10.50
2018-12-22T08:25:14.123Z,10.50
2018-12-22T08:27:41.981Z,10.50
2018-12-22T08:30:09.524Z,10.60
2018-12-22T08:32:37.094Z,10.60
2018-12-22T08:35:04.626Z,10.60
2018-12-22T08:37:32.187Z,10.60
2018-12-22T08:39:59.743Z,10.60
2018-12-22T08:42:28.247Z,10.60
2018-12-22T08:44:55.807Z,10.60
2018-12-22T08:47:24.272Z,10.70
2018-12-22T08:49:51.806Z,10.70
2018-12-22T08:52:19.667Z,10.70
2018-12-22T08:54:47.235Z,10.70
2018-12-22T08:57:14.780Z,10.70
2018-12-22T08:59:42.350Z,10.70
2018-12-22T09:02:09.897Z,10.70
2018-12-22T09:04:37.459Z,10.80
2018-12-22T09:07:05.055Z,10.80
2018-12-22T09:09:32.649Z,10.90
2018-12-22T09:12:00.330Z,10.90
2018-12-22T09:14:27.880Z,10.90
2018-12-22T09:16:55.433Z,11.00
2018-12-22T09:19:22.983Z,11.00
2018-12-22T09:21:51.471Z,11.10
2018-12-22T09:24:19.060Z,11.00
2018-12-22T09:26:46.756Z,11.00
2018-12-22T09:29:14.318Z,11.00
2018-12-22T09:31:41.911Z,11.00
2018-12-22T09:34:13.397Z,11.00
2018-12-22T09:36:39.245Z,11.00
2018-12-22T09:39:07.653Z,11.10
2018-12-22T09:41:35.282Z,11.20
2018-12-22T09:44:02.845Z,11.20
2018-12-22T09:46:31.065Z,11.20
2018-12-22T09:48:58.626Z,11.30
2018-12-22T09:51:26.185Z,11.30
2018-12-22T09:53:53.777Z,11.30
2018-12-22T09:56:22.134Z,11.40
2018-12-22T09:58:49.672Z,11.50
2018-12-22T10:01:17.345Z,11.50
2018-12-22T10:03:44.901Z,11.50
2018-12-22T10:06:12.448Z,11.40
2018-12-22T10:08:40.026Z,11.30
2018-12-22T10:11:07.614Z,11.30
2018-12-22T10:13:35.201Z,11.40
2018-12-22T10:16:02.778Z,11.50
2018-12-22T10:18:30.338Z,11.50
2018-12-22T10:20:57.878Z,11.50
2018-12-22T10:23:25.443Z,11.50
2018-12-22T10:25:53.041Z,11.50
2018-12-22T10:28:23.022Z,11.40
2018-12-22T10:30:50.575Z,11.30
2018-12-22T10:33:18.143Z,11.30
2018-12-22T10:35:45.679Z,11.20
2018-12-22T10:38:13.245Z,11.40
2018-12-22T10:40:42.340Z,11.50
2018-12-22T10:43:09.875Z,11.60
2018-12-22T10:45:38.048Z,11.60
2018-12-22T10:48:05.608Z,11.70
2018-12-22T10:50:33.165Z,11.70
2018-12-22T10:53:00.705Z,11.80
2018-12-22T10:55:29.316Z,11.80
2018-12-22T10:57:56.852Z,11.90
2018-12-22T11:00:24.385Z,12.00
2018-12-22T11:02:51.980Z,12.10
2018-12-22T11:05:19.550Z,12.20
2018-12-22T11:07:47.777Z,12.20
2018-12-22T11:10:17.921Z,12.30
2018-12-22T11:12:45.497Z,12.30
2018-12-22T11:15:13.073Z,12.30
2018-12-22T11:17:40.635Z,12.30
2018-12-22T11:20:08.967Z,12.30
2018-12-22T11:22:36.524Z,12.30
2018-12-22T11:25:09.176Z,12.20
2018-12-22T11:27:38.023Z,12.20
2018-12-22T11:30:09.533Z,12.10
2018-12-22T11:32:37.129Z,12.20
2018-12-22T11:35:05.453Z,12.20
2018-12-22T11:37:34.581Z,12.10
2018-12-22T11:40:02.150Z,12.10
2018-12-22T11:42:32.900Z,12.10
2018-12-22T11:45:00.488Z,12.10
2018-12-22T11:47:32.606Z,12.10
2018-12-22T11:50:00.268Z,12.00
2018-12-22T11:52:27.922Z,12.00
2018-12-22T11:54:55.456Z,12.00
2018-12-22T11:57:23.001Z,12.00
2018-12-22T11:59:50.599Z,11.90
2018-12-22T12:02:18.156Z,12.00
2018-12-22T12:04:45.775Z,11.90
2018-12-22T12:07:13.386Z,11.90
